createdAt,value
2022-09-17T00:00:03.703Z,6.28
2022-09-17T00:02:36.137Z,6.47
2022-09-17T00:05:03.563Z,5.88
2022-09-17T00:08:23.793Z,6.50
2022-09-17T00:10:51.089Z,5.63
2022-09-17T00:13:18.292Z,5.80
2022-09-17T00:20:11.706Z,5.45
2022-09-17T00:22:39.154Z,5.05
2022-09-17T00:25:07.128Z,5.40
2022-09-17T00:27:34.361Z,4.70
2022-09-17T00:30:01.629Z,4.90
2022-09-17T00:32:43.261Z,4.70
2022-09-17T00:35:10.508Z,4.50
2022-09-17T00:37:37.796Z,4.20
2022-09-17T00:40:59.747Z,3.85
2022-09-17T00:43:41.530Z,4.25
2022-09-17T00:46:26.066Z,3.88
2022-09-17T00:52:03.382Z,4.53
2022-09-17T00:54:30.994Z,4.00
2022-09-17T00:56:58.206Z,3.72
2022-09-17T00:59:41.782Z,3.38
2022-09-17T01:02:09.125Z,3.50
2022-09-17T01:04:36.456Z,3.33
2022-09-17T01:11:14.031Z,2.78
2022-09-17T01:14:31.729Z,2.55
2022-09-17T01:17:20.817Z,2.58
2022-09-17T01:20:23.863Z,2.42
2022-09-17T01:23:17.637Z,2.75
2022-09-17T01:25:48.922Z,2.80
2022-09-17T01:28:19.086Z,2.63
2022-09-17T01:30:55.734Z,2.75
2022-09-17T01:33:37.247Z,2.78
2022-09-17T01:36:20.089Z,2.70
2022-09-17T01:39:08.933Z,3.00
2022-09-17T01:41:41.942Z,2.90
2022-09-17T01:44:21.062Z,2.50
2022-09-17T01:46:58.169Z,2.65
2022-09-17T01:49:25.504Z,2.40
2022-09-17T01:51:53.186Z,2.60
2022-09-17T01:54:25.943Z,2.60
2022-09-17T01:57:05.025Z,3.00
2022-09-17T01:59:34.835Z,3.10
2022-09-17T02:02:31.370Z,2.70
2022-09-17T02:05:03.929Z,2.80
2022-09-17T02:07:31.799Z,2.30
2022-09-17T02:10:22.818Z,2.47
2022-09-17T02:13:10.725Z,2.00
2022-09-17T02:15:41.145Z,2.60
2022-09-17T02:18:38.379Z,2.00
2022-09-17T02:21:23.246Z,2.42
2022-09-17T02:24:17.853Z,2.10
2022-09-17T02:26:50.048Z,1.90
2022-09-17T02:29:26.439Z,1.75
2022-09-17T02:31:53.737Z,1.98
2022-09-17T02:34:21.251Z,2.03
2022-09-17T02:36:48.438Z,2.30
2022-09-17T02:39:15.785Z,2.15
2022-09-17T02:42:17.488Z,2.05
2022-09-17T02:45:09.156Z,1.95
2022-09-17T02:47:42.201Z,1.80
2022-09-17T02:50:19.786Z,1.90
2022-09-17T02:53:05.225Z,2.03
2022-09-17T02:55:41.998Z,2.10
2022-09-17T02:58:12.677Z,2.20
2022-09-17T03:00:40.051Z,1.90
2022-09-17T03:03:35.587Z,1.88
2022-09-17T03:06:02.899Z,1.40
2022-09-17T03:08:36.668Z,1.75
2022-09-17T03:11:06.345Z,1.73
2022-09-17T03:13:35.067Z,1.80
2022-09-17T03:16:05.677Z,1.55
2022-09-17T03:18:33.247Z,1.90
2022-09-17T03:21:00.484Z,1.75
2022-09-17T03:23:28.062Z,1.70
2022-09-17T03:25:55.423Z,2.30
2022-09-17T03:28:22.787Z,1.40
2022-09-17T03:30:50.028Z,1.67
2022-09-17T03:33:17.430Z,1.60
2022-09-17T03:35:44.993Z,1.60
2022-09-17T03:38:12.824Z,1.33
2022-09-17T03:40:40.621Z,1.60
2022-09-17T03:43:08.006Z,1.60
2022-09-17T03:45:35.269Z,1.65
2022-09-17T03:48:02.517Z,1.50
2022-09-17T03:50:29.742Z,1.83
2022-09-17T03:52:57.018Z,1.73
2022-09-17T03:55:24.241Z,1.73
2022-09-17T03:57:51.506Z,1.73
2022-09-17T04:00:18.746Z,1.52
2022-09-17T04:02:46.091Z,1.85
2022-09-17T04:05:13.363Z,1.70
2022-09-17T04:07:41.207Z,1.58
2022-09-17T04:10:08.806Z,1.55
2022-09-17T04:12:36.352Z,1.45
2022-09-17T04:15:04.199Z,1.80
2022-09-17T04:17:31.456Z,1.58
2022-09-17T04:19:58.737Z,1.80
2022-09-17T04:22:26.283Z,1.80
2022-09-17T04:24:53.571Z,1.95
2022-09-17T04:27:20.812Z,1.80
2022-09-17T04:29:48.036Z,2.10
2022-09-17T04:32:40.229Z,1.67
2022-09-17T04:35:07.766Z,1.65
2022-09-17T04:37:35.056Z,2.00
2022-09-17T04:40:06.981Z,1.80
2022-09-17T04:42:35.049Z,1.85
2022-09-17T04:45:02.264Z,2.00
2022-09-17T04:47:29.437Z,2.30
2022-09-17T04:49:56.803Z,2.40
2022-09-17T04:52:27.642Z,1.90
2022-09-17T04:54:58.982Z,2.60
2022-09-17T04:57:27.016Z,2.22
2022-09-17T04:59:54.253Z,2.03
2022-09-17T05:02:24.168Z,2.08
2022-09-17T05:04:51.524Z,2.22
2022-09-17T05:07:18.749Z,2.30
2022-09-17T05:09:45.952Z,2.22
2022-09-17T05:12:13.128Z,2.28
2022-09-17T05:14:40.327Z,2.40
2022-09-17T05:17:07.653Z,2.70
2022-09-17T05:19:34.842Z,2.13
2022-09-17T05:22:02.032Z,2.10
2022-09-17T05:24:29.466Z,2.20
2022-09-17T05:26:56.649Z,2.35
2022-09-17T05:29:23.842Z,2.38
2022-09-17T05:31:51.016Z,1.90
2022-09-17T05:34:18.206Z,2.13
2022-09-17T05:36:45.374Z,1.80
2022-09-17T05:39:12.581Z,1.90
2022-09-17T05:41:39.814Z,1.88
2022-09-17T05:44:07.031Z,1.88
2022-09-17T05:46:34.220Z,2.10
2022-09-17T05:49:01.434Z,2.38
2022-09-17T05:51:28.617Z,2.28
2022-09-17T05:53:56.504Z,2.03
2022-09-17T05:56:24.101Z,2.20
2022-09-17T05:58:55.769Z,1.90
2022-09-17T06:01:23.572Z,2.28
2022-09-17T06:03:50.938Z,2.30
2022-09-17T06:06:18.172Z,2.53
2022-09-17T06:08:45.311Z,2.20
2022-09-17T06:11:12.546Z,1.80
2022-09-17T06:13:39.774Z,2.10
2022-09-17T06:16:07.009Z,2.05
2022-09-17T06:18:35.340Z,2.05
2022-09-17T06:21:03.381Z,2.15
2022-09-17T06:23:35.101Z,2.30
2022-09-17T06:26:03.073Z,2.25
2022-09-17T06:28:30.247Z,2.20
2022-09-17T06:31:23.661Z,1.95
2022-09-17T06:33:51.168Z,1.88
2022-09-17T06:36:18.439Z,1.70
2022-09-17T06:38:45.585Z,1.83
2022-09-17T06:41:14.510Z,2.20
2022-09-17T06:43:41.743Z,2.00
2022-09-17T06:46:10.198Z,1.92
2022-09-17T06:48:37.780Z,2.42
2022-09-17T06:51:06.954Z,2.15
2022-09-17T06:53:34.434Z,2.00
2022-09-17T06:56:06.287Z,2.10
2022-09-17T06:59:03.072Z,2.13
2022-09-17T07:01:30.321Z,1.80
2022-09-17T07:03:57.760Z,2.08
2022-09-17T07:07:31.833Z,2.30
2022-09-17T07:09:59.051Z,1.90
2022-09-17T07:12:26.441Z,2.20
2022-09-17T07:15:00.738Z,1.98
2022-09-17T07:17:29.671Z,1.95
2022-09-17T07:19:56.883Z,1.83
2022-09-17T07:22:25.115Z,2.00
2022-09-17T07:25:23.317Z,2.13
2022-09-17T07:27:50.795Z,1.58
2022-09-17T07:34:43.525Z,1.58
2022-09-17T07:37:52.826Z,1.60
2022-09-17T07:40:20.013Z,1.70
2022-09-17T07:42:47.329Z,1.42
2022-09-17T07:45:18.269Z,1.63
2022-09-17T07:47:45.521Z,1.70
2022-09-17T07:55:06.161Z,1.38
2022-09-17T08:00:52.740Z,1.50
2022-09-17T08:03:19.969Z,1.60
2022-09-17T08:05:53.421Z,1.60
2022-09-17T08:08:21.431Z,1.60
2022-09-17T08:10:48.744Z,1.70
2022-09-17T08:13:29.811Z,1.95
2022-09-17T08:16:15.294Z,1.58
2022-09-17T08:18:43.624Z,1.63
2022-09-17T08:21:13.157Z,1.45
2022-09-17T08:23:41.431Z,1.52
2022-09-17T08:26:14.104Z,1.60
2022-09-17T08:28:44.750Z,1.40
2022-09-17T08:31:12.012Z,1.80
2022-09-17T08:33:39.941Z,1.50
2022-09-17T08:37:12.849Z,1.88
2022-09-17T08:39:40.080Z,1.52
2022-09-17T08:42:57.708Z,1.80
2022-09-17T08:45:26.293Z,1.70
2022-09-17T08:47:56.008Z,1.52
2022-09-17T08:50:31.173Z,1.95
2022-09-17T08:53:34.405Z,1.70
2022-09-17T08:56:02.973Z,1.42
2022-09-17T08:59:04.669Z,1.80
2022-09-17T09:02:04.104Z,1.60
2022-09-17T09:05:08.705Z,1.77
2022-09-17T09:07:38.390Z,1.50
2022-09-17T09:10:24.835Z,1.92
2022-09-17T09:12:52.453Z,1.90
2022-09-17T09:15:22.923Z,1.60
2022-09-17T09:18:32.829Z,1.80
2022-09-17T09:21:29.457Z,1.73
2022-09-17T09:23:58.527Z,1.70
2022-09-17T09:26:50.238Z,2.00
2022-09-17T09:29:44.784Z,1.73
2022-09-17T09:32:27.440Z,1.77
2022-09-17T09:34:54.907Z,2.08
2022-09-17T09:37:25.280Z,1.90
2022-09-17T09:39:54.180Z,2.00
2022-09-17T09:42:27.769Z,1.77
2022-09-17T09:45:01.576Z,2.15
2022-09-17T09:47:59.251Z,1.58
2022-09-17T09:51:07.308Z,1.95
2022-09-17T09:54:16.552Z,1.77
2022-09-17T09:56:58.433Z,1.63
2022-09-17T09:59:26.143Z,1.88
2022-09-17T10:01:53.540Z,1.65
2022-09-17T10:04:24.674Z,2.00
2022-09-17T10:06:59.934Z,2.15
2022-09-17T10:09:29.917Z,2.38
2022-09-17T10:12:06.479Z,2.15
2022-09-17T10:14:35.142Z,2.17
2022-09-17T10:17:22.570Z,2.25
2022-09-17T10:20:02.041Z,2.28
2022-09-17T10:22:33.158Z,2.30
2022-09-17T10:25:01.086Z,2.45
2022-09-17T10:27:28.527Z,2.60
2022-09-17T10:30:08.276Z,2.47
2022-09-17T10:32:35.660Z,2.30
2022-09-17T10:35:14.693Z,2.55
2022-09-17T10:37:49.290Z,2.60
2022-09-17T10:40:18.413Z,2.80
2022-09-17T10:42:49.911Z,2.60
2022-09-17T10:45:30.614Z,2.33
2022-09-17T10:47:59.759Z,2.10
2022-09-17T10:50:34.551Z,2.35
2022-09-17T10:53:06.257Z,1.90
2022-09-17T10:55:37.459Z,1.95
2022-09-17T10:58:07.739Z,2.03
2022-09-17T11:01:00.163Z,2.05
2022-09-17T11:03:55.531Z,1.95
2022-09-17T11:06:47.025Z,2.00
2022-09-17T11:09:22.811Z,2.10
2022-09-17T11:12:20.032Z,2.10
2022-09-17T11:15:10.796Z,1.92
2022-09-17T11:18:10.759Z,1.80
2022-09-17T11:21:09.544Z,1.75
2022-09-17T11:24:01.238Z,1.83
2022-09-17T11:26:42.539Z,2.00
2022-09-17T11:29:09.770Z,2.00
2022-09-17T11:31:38.416Z,2.25
2022-09-17T11:34:16.593Z,2.08
2022-09-17T11:36:53.179Z,1.80
2022-09-17T11:39:34.439Z,2.20
2022-09-17T11:42:03.558Z,2.50
2022-09-17T11:44:39.055Z,2.67
2022-09-17T11:47:27.614Z,2.33
2022-09-17T11:50:16.900Z,2.33
2022-09-17T11:52:46.012Z,2.00
2022-09-17T11:55:18.718Z,1.80
2022-09-17T11:57:45.936Z,2.35
2022-09-17T12:00:20.258Z,2.20
2022-09-17T12:03:05.567Z,1.88
2022-09-17T12:05:48.718Z,2.20
2022-09-17T12:08:26.698Z,2.15
2022-09-17T12:11:12.097Z,1.98
2022-09-17T12:13:55.328Z,2.00
2022-09-17T12:16:36.264Z,1.80
2022-09-17T12:19:33.280Z,1.50
2022-09-17T12:22:09.422Z,1.92
2022-09-17T12:24:36.645Z,1.50
2022-09-17T12:27:12.983Z,1.63
2022-09-17T12:30:09.324Z,2.05
2022-09-17T12:32:43.319Z,1.83
2022-09-17T12:35:16.597Z,2.20
2022-09-17T12:37:46.851Z,2.00
2022-09-17T12:40:15.099Z,1.75
2022-09-17T12:42:51.434Z,1.80
2022-09-17T12:45:50.737Z,1.80
2022-09-17T12:48:30.404Z,2.10
2022-09-17T12:51:22.765Z,2.10
2022-09-17T12:54:22.079Z,2.20
2022-09-17T12:56:57.752Z,1.92
2022-09-17T12:59:29.345Z,2.33
2022-09-17T13:02:00.288Z,2.50
2022-09-17T13:04:59.928Z,2.80
2022-09-17T13:07:48.889Z,2.50
2022-09-17T13:10:34.177Z,3.00
2022-09-17T13:13:31.466Z,2.80
2022-09-17T13:16:37.459Z,2.67
2022-09-17T13:19:16.610Z,2.53
2022-09-17T13:22:48.866Z,2.60
2022-09-17T13:25:17.771Z,2.22
2022-09-17T13:27:45.888Z,2.50
2022-09-17T13:30:17.225Z,2.50
2022-09-17T13:32:50.154Z,2.38
2022-09-17T13:35:17.307Z,2.50
2022-09-17T13:37:53.905Z,2.80
2022-09-17T13:40:29.601Z,2.50
2022-09-17T13:43:13.862Z,2.92
2022-09-17T13:46:00.574Z,2.42
2022-09-17T13:48:32.358Z,2.60
2022-09-17T13:51:34.625Z,2.42
2022-09-17T13:54:03.059Z,2.60
2022-09-17T13:56:34.797Z,2.13
2022-09-17T13:59:12.782Z,2.03
2022-09-17T14:02:04.527Z,2.00
2022-09-17T14:04:52.340Z,2.38
2022-09-17T14:07:26.357Z,2.08
2022-09-17T14:10:21.931Z,1.80
2022-09-17T14:12:50.785Z,1.77
2022-09-17T14:15:57.428Z,1.60
2022-09-17T14:18:27.734Z,1.65
2022-09-17T14:21:14.718Z,1.20
2022-09-17T14:23:43.822Z,1.40
2022-09-17T14:26:33.138Z,1.20
2022-09-17T14:29:06.261Z,1.10
2022-09-17T14:31:35.901Z,1.17
2022-09-17T14:34:06.905Z,1.10
2022-09-17T14:36:36.983Z,1.38
2022-09-17T14:39:04.984Z,1.40
2022-09-17T14:41:39.530Z,1.30
2022-09-17T14:44:09.067Z,1.55
2022-09-17T14:46:46.378Z,1.42
2022-09-17T14:49:27.059Z,1.40
2022-09-17T14:51:55.307Z,1.60
2022-09-17T14:54:26.202Z,1.40
2022-09-17T14:56:54.624Z,1.40
2022-09-17T14:59:23.702Z,1.40
2022-09-17T15:01:51.071Z,1.27
2022-09-17T15:04:22.241Z,1.27
2022-09-17T15:06:50.030Z,1.15
2022-09-17T15:09:23.667Z,1.15
2022-09-17T15:11:52.880Z,1.13
2022-09-17T15:14:38.512Z,1.00
2022-09-17T15:17:05.820Z,1.20
2022-09-17T15:19:37.590Z,1.17
2022-09-17T15:22:26.169Z,1.20
2022-09-17T15:24:56.917Z,1.00
2022-09-17T15:27:44.865Z,1.00
2022-09-17T15:30:15.123Z,1.02
2022-09-17T15:32:44.233Z,0.95
2022-09-17T15:35:11.392Z,0.90
2022-09-17T15:37:55.889Z,1.08
2022-09-17T15:40:33.525Z,0.97
2022-09-17T15:43:21.953Z,0.98
2022-09-17T15:45:49.328Z,0.95
2022-09-17T15:48:35.806Z,0.90
2022-09-17T15:51:04.396Z,1.10
2022-09-17T15:53:32.550Z,1.27
2022-09-17T15:56:01.138Z,1.08
2022-09-17T15:59:33.339Z,1.35
2022-09-17T16:02:28.133Z,1.15
2022-09-17T16:07:41.569Z,1.10
2022-09-17T16:10:09.299Z,1.00
2022-09-17T16:12:56.487Z,1.13
2022-09-17T16:15:24.161Z,0.98
2022-09-17T16:17:51.316Z,1.05
2022-09-17T16:21:14.848Z,1.08
2022-09-17T16:23:42.241Z,1.10
2022-09-17T16:26:23.453Z,1.10
2022-09-17T16:28:55.520Z,1.17
2022-09-17T16:31:22.914Z,0.95
2022-09-17T16:33:50.160Z,1.20
2022-09-17T16:36:18.308Z,1.20
2022-09-17T16:38:45.534Z,0.80
2022-09-17T16:41:12.843Z,0.93
2022-09-17T16:43:40.338Z,0.75
2022-09-17T16:46:08.849Z,1.40
2022-09-17T16:48:36.189Z,0.80
2022-09-17T16:51:10.597Z,0.80
2022-09-17T16:53:38.113Z,0.88
2022-09-17T16:56:12.483Z,1.13
2022-09-17T16:58:40.224Z,0.98
2022-09-17T17:01:11.213Z,0.80
2022-09-17T17:03:38.585Z,0.80
2022-09-17T17:06:06.021Z,1.08
2022-09-17T17:08:33.621Z,0.90
2022-09-17T17:11:00.968Z,1.00
2022-09-17T17:13:28.197Z,1.10
2022-09-17T17:15:55.485Z,1.17
2022-09-17T17:18:22.984Z,1.30
2022-09-17T17:20:50.827Z,1.50
2022-09-17T17:23:18.044Z,1.20
2022-09-17T17:25:45.292Z,1.30
2022-09-17T17:28:14.736Z,1.25
2022-09-17T17:30:41.989Z,1.58
2022-09-17T17:33:11.000Z,1.30
2022-09-17T17:35:41.527Z,1.25
2022-09-17T17:38:08.720Z,1.17
2022-09-17T17:40:36.018Z,1.05
2022-09-17T17:43:03.537Z,1.30
2022-09-17T17:45:30.722Z,1.00
2022-09-17T17:47:57.897Z,1.10
2022-09-17T17:50:25.159Z,0.80
2022-09-17T17:52:54.883Z,1.00
2022-09-17T17:55:22.104Z,1.25
2022-09-17T17:57:58.952Z,0.90
2022-09-17T18:00:30.422Z,1.00
2022-09-17T18:02:57.627Z,1.10
2022-09-17T18:05:24.839Z,1.20
2022-09-17T18:07:52.021Z,0.93
2022-09-17T18:10:19.710Z,1.20
2022-09-17T18:12:50.518Z,1.10
2022-09-17T18:15:17.949Z,1.13
2022-09-17T18:17:47.942Z,1.30
2022-09-17T18:20:15.343Z,1.20
2022-09-17T18:22:42.518Z,1.10
2022-09-17T18:25:09.892Z,1.30
2022-09-17T18:27:37.064Z,1.35
2022-09-17T18:30:04.710Z,1.25
2022-09-17T18:32:32.166Z,0.98
2022-09-17T18:34:59.320Z,1.13
2022-09-17T18:37:28.596Z,0.95
2022-09-17T18:39:58.831Z,1.15
2022-09-17T18:42:27.130Z,1.02
2022-09-17T18:44:54.328Z,1.40
2022-09-17T18:47:21.551Z,1.17
2022-09-17T18:49:48.775Z,1.52
2022-09-17T18:52:15.975Z,1.13
2022-09-17T18:54:45.890Z,1.38
2022-09-17T18:57:13.575Z,1.20
2022-09-17T18:59:40.842Z,1.42
2022-09-17T19:02:11.750Z,1.40
2022-09-17T19:04:39.222Z,1.20
2022-09-17T19:07:06.756Z,1.30
2022-09-17T19:09:33.999Z,1.40
2022-09-17T19:12:01.395Z,1.35
2022-09-17T19:14:28.653Z,1.48
2022-09-17T19:16:55.857Z,1.80
2022-09-17T19:19:23.138Z,1.40
2022-09-17T19:21:50.649Z,1.48
2022-09-17T19:24:17.967Z,1.50
2022-09-17T19:26:50.686Z,1.40
2022-09-17T19:29:18.281Z,1.33
2022-09-17T19:31:45.544Z,1.25
2022-09-17T19:34:12.871Z,1.10
2022-09-17T19:36:40.152Z,1.30
2022-09-17T19:39:08.723Z,1.55
2022-09-17T19:41:36.259Z,1.30
2022-09-17T19:44:03.744Z,1.40
2022-09-17T19:46:31.607Z,1.38
2022-09-17T19:49:00.543Z,1.35
2022-09-17T19:51:32.141Z,1.58
2022-09-17T19:53:59.464Z,1.67
2022-09-17T19:56:27.338Z,1.42
2022-09-17T19:58:54.633Z,1.40
2022-09-17T20:01:21.881Z,1.50
2022-09-17T20:03:49.156Z,1.50
2022-09-17T20:06:17.497Z,1.85
2022-09-17T20:08:47.996Z,1.65
2022-09-17T20:11:15.920Z,2.00
2022-09-17T20:13:43.225Z,1.92
2022-09-17T20:16:13.568Z,1.80
2022-09-17T20:18:40.851Z,1.70
2022-09-17T20:21:09.610Z,1.80
2022-09-17T20:23:37.503Z,1.65
2022-09-17T20:26:05.036Z,1.58
2022-09-17T20:28:32.692Z,1.70
2022-09-17T20:31:04.669Z,1.63
2022-09-17T20:33:32.201Z,1.50
2022-09-17T20:36:07.199Z,1.60
2022-09-17T20:41:22.940Z,1.83
2022-09-17T20:43:51.486Z,1.80
2022-09-17T20:46:19.212Z,1.65
2022-09-17T20:48:47.228Z,1.73
2022-09-17T20:51:18.992Z,1.75
2022-09-17T20:53:46.579Z,1.73
2022-09-17T20:56:21.704Z,1.65
2022-09-17T20:58:54.584Z,1.80
2022-09-17T21:01:23.569Z,1.77
2022-09-17T21:03:53.212Z,1.98
2022-09-17T21:06:24.936Z,1.92
2022-09-17T21:08:52.555Z,2.00
2022-09-17T21:11:22.937Z,2.08
2022-09-17T21:13:50.805Z,1.90
2022-09-17T21:16:19.561Z,1.90
2022-09-17T21:18:47.947Z,1.52
2022-09-17T21:21:17.477Z,1.65
2022-09-17T21:23:44.805Z,1.90
2022-09-17T21:26:14.164Z,1.40
2022-09-17T21:28:42.855Z,1.70
2022-09-17T21:31:12.265Z,1.50
2022-09-17T21:33:39.824Z,1.40
2022-09-17T21:36:17.025Z,1.10
2022-09-17T21:38:44.727Z,1.05
2022-09-17T21:41:13.755Z,1.10
2022-09-17T21:43:41.916Z,1.17
2022-09-17T21:46:16.057Z,0.80
2022-09-17T21:48:57.765Z,0.70
2022-09-17T21:51:30.509Z,0.75
2022-09-17T21:54:01.179Z,0.63
2022-09-17T21:56:29.597Z,0.70
2022-09-17T21:59:04.240Z,0.80
2022-09-17T22:04:25.841Z,0.90
2022-09-17T22:07:02.069Z,0.82
2022-09-17T22:09:30.342Z,0.80
2022-09-17T22:11:58.401Z,0.98
2022-09-17T22:14:25.979Z,0.90
2022-09-17T22:16:57.108Z,0.60
2022-09-17T22:19:27.067Z,0.90
2022-09-17T22:21:56.360Z,0.90
2022-09-17T22:24:26.913Z,0.68
2022-09-17T22:26:58.513Z,0.60
2022-09-17T22:29:31.616Z,0.70
2022-09-17T22:32:01.440Z,0.80
2022-09-17T22:34:29.833Z,0.63
2022-09-17T22:36:57.361Z,0.70
2022-09-17T22:39:24.716Z,0.80
2022-09-17T22:41:52.105Z,0.70
2022-09-17T22:44:21.311Z,0.77
2022-09-17T22:46:50.265Z,0.70
2022-09-17T22:49:17.933Z,0.50
2022-09-17T22:51:46.611Z,0.70
2022-09-17T22:54:15.635Z,0.60
2022-09-17T22:56:42.999Z,0.90
2022-09-17T22:59:13.973Z,0.80
2022-09-17T23:01:50.686Z,1.30
2022-09-17T23:04:18.200Z,1.00
2022-09-17T23:06:45.575Z,0.80
2022-09-17T23:09:13.742Z,0.95
2022-09-17T23:11:41.094Z,0.90
2022-09-17T23:14:10.428Z,1.08
2022-09-17T23:16:46.200Z,0.80
2022-09-17T23:22:23.001Z,1.00
2022-09-17T23:24:50.268Z,1.00
2022-09-17T23:45:24.062Z,1.20
2022-09-17T23:47:52.462Z,1.00
2022-09-17T23:50:19.909Z,0.90
2022-09-17T23:52:47.407Z,1.38
2022-09-17T23:55:39.929Z,0.90
